UAL870 YSSY-KSFO
Flight info
| Callsign | UAL870 |
|---|---|
| Flight time | N/A |
| Altitude | 31000 |
| Route | NOBAR B474 BEADS DCT 2950S15608E 2640S16041E 2514S16300E 2508S16309E 2213S16819E/N0497F330 2008S17143E 1745S17454E 1341S17920E 0931S17640W 0523S17253W 0500S17229W 0154S16916W/N0491F350 0150N16508W 0506N16138W 0651N15947W 0909N15713W 1133N15421W 1303N15230W 1605N14837W/N0480F370 1753N14610W 1955N14322W 2154N14044W 2345N13824W 2619N13517W 2926N13135W 3149N12857W DCT MAFIC A220 CINNY DCT PIRAT DCT OSI PYE3 |
| Aircraft | B77W/H-SDE1E2E3FGHIJ2J3J4J5M1RWXY/LB1D1 |
Departure
| Time | 2026-04-26 10:11 |
|---|---|
| Airport | Sydney Kingsford Smith International Airport (YSSY) |
Arrival
| Time | N/A |
|---|---|
| Airport | San Francisco International Airport (KSFO) |
| Time | Latitude | Longitude | Altitude | Speed | Heading |
|---|---|---|---|---|---|
| 2026-04-26 09:27 | -33.93859 | 151.16515 | 34 ft | 0 kts | 82° |
| 2026-04-26 09:48 | -33.93860 | 151.16513 | 35 ft | 2 kts | 82° |
| 2026-04-26 09:48 | -33.93863 | 151.16482 | 33 ft | 4 kts | 82° |
| 2026-04-26 09:49 | -33.93867 | 151.16450 | 31 ft | 4 kts | 82° |
| 2026-04-26 09:49 | -33.93870 | 151.16424 | 33 ft | 3 kts | 80° |
| 2026-04-26 09:49 | -33.93880 | 151.16396 | 34 ft | 4 kts | 57° |
| 2026-04-26 09:49 | -33.93889 | 151.16371 | 32 ft | 4 kts | 86° |
| 2026-04-26 09:50 | -33.93881 | 151.16348 | 31 ft | 4 kts | 144° |
| 2026-04-26 09:50 | -33.93879 | 151.16345 | 32 ft | 4 kts | 150° |
| 2026-04-26 09:50 | -33.93887 | 151.16348 | 31 ft | 0 kts | 165° |
| 2026-04-26 09:55 | -33.93888 | 151.16348 | 35 ft | 1 kts | 165° |
| 2026-04-26 09:55 | -33.93913 | 151.16344 | 35 ft | 7 kts | 209° |
| 2026-04-26 09:55 | -33.93985 | 151.16300 | 35 ft | 13 kts | 203° |
| 2026-04-26 09:55 | -33.94065 | 151.16274 | 35 ft | 13 kts | 180° |
| 2026-04-26 09:56 | -33.94152 | 151.16295 | 35 ft | 13 kts | 163° |
| 2026-04-26 09:56 | -33.94172 | 151.16302 | 34 ft | 1 kts | 163° |
| 2026-04-26 09:56 | -33.94176 | 151.16331 | 34 ft | 9 kts | 78° |
| 2026-04-26 09:56 | -33.94151 | 151.16458 | 34 ft | 19 kts | 75° |
| 2026-04-26 09:57 | -33.94126 | 151.16565 | 34 ft | 12 kts | 74° |
| 2026-04-26 09:57 | -33.94103 | 151.16663 | 35 ft | 12 kts | 75° |
| 2026-04-26 09:57 | -33.94080 | 151.16761 | 35 ft | 12 kts | 74° |
| 2026-04-26 09:57 | -33.94057 | 151.16861 | 35 ft | 13 kts | 74° |
| 2026-04-26 09:58 | -33.94027 | 151.16987 | 34 ft | 18 kts | 73° |
| 2026-04-26 09:58 | -33.93989 | 151.17144 | 34 ft | 18 kts | 73° |
| 2026-04-26 09:58 | -33.94027 | 151.17237 | 34 ft | 16 kts | 165° |
| 2026-04-26 09:58 | -33.94150 | 151.17271 | 33 ft | 21 kts | 168° |
| 2026-04-26 09:59 | -33.94301 | 151.17310 | 35 ft | 23 kts | 168° |
| 2026-04-26 09:59 | -33.94457 | 151.17351 | 35 ft | 23 kts | 168° |
| 2026-04-26 09:59 | -33.94612 | 151.17391 | 35 ft | 23 kts | 168° |
| 2026-04-26 09:59 | -33.94768 | 151.17431 | 35 ft | 23 kts | 168° |
| 2026-04-26 10:00 | -33.94924 | 151.17472 | 34 ft | 23 kts | 168° |
| 2026-04-26 10:00 | -33.95080 | 151.17512 | 34 ft | 23 kts | 168° |
| 2026-04-26 10:00 | -33.95236 | 151.17553 | 34 ft | 23 kts | 168° |
| 2026-04-26 10:00 | -33.95392 | 151.17593 | 34 ft | 23 kts | 167° |
| 2026-04-26 10:01 | -33.95548 | 151.17634 | 34 ft | 23 kts | 168° |
| 2026-04-26 10:01 | -33.95703 | 151.17674 | 35 ft | 23 kts | 168° |
| 2026-04-26 10:01 | -33.95859 | 151.17715 | 35 ft | 23 kts | 168° |
| 2026-04-26 10:01 | -33.96015 | 151.17755 | 35 ft | 23 kts | 168° |
| 2026-04-26 10:02 | -33.96171 | 151.17796 | 35 ft | 23 kts | 168° |
| 2026-04-26 10:02 | -33.96314 | 151.17833 | 35 ft | 14 kts | 168° |
| 2026-04-26 10:02 | -33.96399 | 151.17858 | 35 ft | 11 kts | 155° |
| 2026-04-26 10:02 | -33.96429 | 151.17899 | 35 ft | 6 kts | 114° |
| 2026-04-26 10:03 | -33.96431 | 151.17904 | 35 ft | 0 kts | 109° |
| 2026-04-26 10:08 | -33.96433 | 151.17923 | 35 ft | 9 kts | 94° |
| 2026-04-26 10:08 | -33.96418 | 151.18027 | 34 ft | 12 kts | 68° |
| 2026-04-26 10:08 | -33.96347 | 151.18044 | 34 ft | 9 kts | 348° |
| 2026-04-26 10:08 | -33.96344 | 151.18043 | 34 ft | 0 kts | 348° |
| 2026-04-26 10:10 | -33.96333 | 151.18040 | 34 ft | 9 kts | 348° |
| 2026-04-26 10:10 | -33.96075 | 151.17975 | 31 ft | 73 kts | 347° |
| 2026-04-26 10:10 | -33.95360 | 151.17788 | 34 ft | 136 kts | 348° |
| 2026-04-26 10:10 | -33.94256 | 151.17503 | 36 ft | 186 kts | 348° |
| 2026-04-26 10:11 | -33.92906 | 151.17171 | 279 ft | 201 kts | 350° |
| 2026-04-26 10:11 | -33.91535 | 151.16851 | 858 ft | 201 kts | 350° |
| 2026-04-26 10:11 | -33.90173 | 151.16474 | 1471 ft | 202 kts | 343° |
| 2026-04-26 10:11 | -33.88905 | 151.15700 | 2047 ft | 207 kts | 326° |
| 2026-04-26 10:12 | -33.87791 | 151.14576 | 2489 ft | 218 kts | 317° |
| 2026-04-26 10:12 | -33.86714 | 151.13163 | 2732 ft | 237 kts | 313° |
| 2026-04-26 10:12 | -33.85610 | 151.11644 | 3187 ft | 245 kts | 313° |
| 2026-04-26 10:12 | -33.84465 | 151.10076 | 3578 ft | 255 kts | 313° |
| 2026-04-26 10:13 | -33.83267 | 151.08455 | 4107 ft | 262 kts | 313° |
| 2026-04-26 10:13 | -33.82030 | 151.06797 | 4655 ft | 268 kts | 312° |
| 2026-04-26 10:13 | -33.80775 | 151.05129 | 5283 ft | 272 kts | 311° |
| 2026-04-26 10:13 | -33.79488 | 151.03427 | 5796 ft | 279 kts | 311° |
| 2026-04-26 10:14 | -33.78171 | 151.01694 | 6356 ft | 283 kts | 312° |
| 2026-04-26 10:14 | -33.76839 | 150.99947 | 6939 ft | 286 kts | 312° |
| 2026-04-26 10:14 | -33.75488 | 150.98180 | 7535 ft | 286 kts | 313° |
| 2026-04-26 10:14 | -33.73938 | 150.96703 | 7956 ft | 288 kts | 339° |
| 2026-04-26 10:15 | -33.71970 | 150.96385 | 8385 ft | 289 kts | 12° |
| 2026-04-26 10:15 | -33.70165 | 150.97346 | 8934 ft | 286 kts | 40° |
| 2026-04-26 10:15 | -33.68878 | 150.99104 | 9475 ft | 286 kts | 62° |
| 2026-04-26 10:15 | -33.68177 | 151.01379 | 9997 ft | 289 kts | 81° |
| 2026-04-26 10:16 | -33.68195 | 151.03762 | 10370 ft | 295 kts | 98° |
| 2026-04-26 10:16 | -33.68554 | 151.06261 | 10500 ft | 313 kts | 100° |
| 2026-04-26 10:16 | -33.68978 | 151.08906 | 10627 ft | 332 kts | 101° |